sensor_id;sensor_type;location;lat;lon;timestamp;pressure;altitude;pressure_sealevel;temperature;humidity
10474;BME280;5284;50.446;7.904;2023-07-20T00:01:24;98277.06;;;15.55;96.67
10474;BME280;5284;50.446;7.904;2023-07-20T00:06:27;98273.00;;;15.43;100.00
10474;BME280;5284;50.446;7.904;2023-07-20T00:11:30;98276.38;;;15.37;98.29
10474;BME280;5284;50.446;7.904;2023-07-20T00:16:34;98266.25;;;15.24;100.00
10474;BME280;5284;50.446;7.904;2023-07-20T00:21:37;98263.56;;;15.16;100.00
10474;BME280;5284;50.446;7.904;2023-07-20T00:26:42;98260.34;;;15.12;100.00
10474;BME280;5284;50.446;7.904;2023-07-20T00:31:46;98271.41;;;15.01;100.00
10474;BME280;5284;50.446;7.904;2023-07-20T00:36:52;98261.16;;;14.89;100.00
10474;BME280;5284;50.446;7.904;2023-07-20T00:41:57;98272.34;;;14.76;100.00
10474;BME280;5284;50.446;7.904;2023-07-20T00:47:01;98261.44;;;14.78;100.00
10474;BME280;5284;50.446;7.904;2023-07-20T00:52:08;98257.59;;;14.80;100.00
10474;BME280;5284;50.446;7.904;2023-07-20T00:57:14;98261.47;;;14.86;100.00
10474;BME280;5284;50.446;7.904;2023-07-20T01:02:19;98264.31;;;14.92;100.00
10474;BME280;5284;50.446;7.904;2023-07-20T01:07:25;98271.25;;;15.03;100.00
10474;BME280;5284;50.446;7.904;2023-07-20T01:12:30;98270.06;;;14.97;100.00
10474;BME280;5284;50.446;7.904;2023-07-20T01:17:36;98268.75;;;15.09;100.00
10474;BME280;5284;50.446;7.904;2023-07-20T01:22:50;98281.50;;;15.23;100.00
10474;BME280;5284;50.446;7.904;2023-07-20T01:28:18;98281.50;;;15.23;100.00
10474;BME280;5284;50.446;7.904;2023-07-20T01:33:30;98280.56;;;15.32;100.00
10474;BME280;5284;50.446;7.904;2023-07-20T01:38:35;98287.63;;;15.41;100.00
10474;BME280;5284;50.446;7.904;2023-07-20T01:43:39;98295.38;;;15.44;100.00
10474;BME280;5284;50.446;7.904;2023-07-20T01:48:43;98297.88;;;15.37;100.00
10474;BME280;5284;50.446;7.904;2023-07-20T01:53:46;98294.84;;;15.32;100.00
10474;BME280;5284;50.446;7.904;2023-07-20T01:58:49;98287.94;;;15.30;100.00
10474;BME280;5284;50.446;7.904;2023-07-20T02:03:54;98276.88;;;15.33;100.00
10474;BME280;5284;50.446;7.904;2023-07-20T02:08:57;98280.91;;;15.37;100.00
10474;BME280;5284;50.446;7.904;2023-07-20T02:14:00;98261.09;;;15.46;100.00
10474;BME280;5284;50.446;7.904;2023-07-20T02:19:04;98265.78;;;15.44;100.00
10474;BME280;5284;50.446;7.904;2023-07-20T02:24:08;98267.13;;;15.40;100.00
10474;BME280;5284;50.446;7.904;2023-07-20T02:29:11;98271.84;;;15.38;100.00
10474;BME280;5284;50.446;7.904;2023-07-20T02:34:15;98268.63;;;15.34;100.00
10474;BME280;5284;50.446;7.904;2023-07-20T02:39:20;98267.63;;;15.35;100.00
10474;BME280;5284;50.446;7.904;2023-07-20T02:44:23;98260.09;;;15.31;100.00
10474;BME280;5284;50.446;7.904;2023-07-20T02:49:27;98268.31;;;15.30;100.00
10474;BME280;5284;50.446;7.904;2023-07-20T02:54:30;98262.03;;;15.21;100.00
10474;BME280;5284;50.446;7.904;2023-07-20T02:59:33;98269.59;;;15.18;100.00
10474;BME280;5284;50.446;7.904;2023-07-20T03:04:37;98270.25;;;15.12;100.00
10474;BME280;5284;50.446;7.904;2023-07-20T03:09:40;98272.44;;;15.00;100.00
10474;BME280;5284;50.446;7.904;2023-07-20T03:14:45;98275.91;;;14.93;100.00
10474;BME280;5284;50.446;7.904;2023-07-20T03:19:49;98272.03;;;14.87;100.00
10474;BME280;5284;50.446;7.904;2023-07-20T03:24:52;98269.69;;;14.84;100.00
10474;BME280;5284;50.446;7.904;2023-07-20T03:29:55;98270.34;;;14.78;100.00
10474;BME280;5284;50.446;7.904;2023-07-20T03:34:59;98271.81;;;14.73;100.00
10474;BME280;5284;50.446;7.904;2023-07-20T03:40:03;98277.84;;;14.67;100.00
10474;BME280;5284;50.446;7.904;2023-07-20T03:45:08;98275.81;;;14.61;100.00
10474;BME280;5284;50.446;7.904;2023-07-20T03:50:12;98278.16;;;14.56;100.00
10474;BME280;5284;50.446;7.904;2023-07-20T03:55:15;98288.69;;;14.49;100.00
10474;BME280;5284;50.446;7.904;2023-07-20T04:00:18;98292.47;;;14.39;100.00
10474;BME280;5284;50.446;7.904;2023-07-20T04:05:22;98289.22;;;14.27;100.00
10474;BME280;5284;50.446;7.904;2023-07-20T04:10:25;98282.03;;;14.28;100.00
10474;BME280;5284;50.446;7.904;2023-07-20T04:15:28;98282.84;;;14.28;100.00
10474;BME280;5284;50.446;7.904;2023-07-20T04:20:34;98288.41;;;14.27;100.00
10474;BME280;5284;50.446;7.904;2023-07-20T04:25:39;98289.94;;;14.29;100.00
10474;BME280;5284;50.446;7.904;2023-07-20T04:30:48;98294.28;;;14.30;100.00
10474;BME280;5284;50.446;7.904;2023-07-20T04:35:54;98288.47;;;14.43;100.00
10474;BME280;5284;50.446;7.904;2023-07-20T04:41:06;98292.34;;;14.48;100.00
10474;BME280;5284;50.446;7.904;2023-07-20T04:46:14;98292.25;;;14.58;100.00
10474;BME280;5284;50.446;7.904;2023-07-20T04:51:21;98294.81;;;14.67;100.00
10474;BME280;5284;50.446;7.904;2023-07-20T04:56:28;98294.13;;;14.65;100.00
10474;BME280;5284;50.446;7.904;2023-07-20T05:01:32;98289.47;;;14.75;100.00
10474;BME280;5284;50.446;7.904;2023-07-20T05:06:36;98291.50;;;14.81;100.00
10474;BME280;5284;50.446;7.904;2023-07-20T05:11:40;98301.97;;;15.00;100.00
10474;BME280;5284;50.446;7.904;2023-07-20T05:16:43;98295.69;;;15.33;100.00
10474;BME280;5284;50.446;7.904;2023-07-20T05:21:48;98306.09;;;15.52;100.00
10474;BME280;5284;50.446;7.904;2023-07-20T05:26:51;98293.50;;;15.68;100.00
10474;BME280;5284;50.446;7.904;2023-07-20T05:31:54;98297.53;;;15.80;100.00
10474;BME280;5284;50.446;7.904;2023-07-20T05:36:58;98301.59;;;15.92;100.00
10474;BME280;5284;50.446;7.904;2023-07-20T05:42:01;98299.38;;;16.04;100.00
10474;BME280;5284;50.446;7.904;2023-07-20T05:47:04;98302.91;;;16.20;100.00
10474;BME280;5284;50.446;7.904;2023-07-20T05:52:09;98309.78;;;16.39;100.00
10474;BME280;5284;50.446;7.904;2023-07-20T05:57:12;98308.22;;;16.44;100.00
10474;BME280;5284;50.446;7.904;2023-07-20T06:02:16;98318.84;;;16.46;100.00
10474;BME280;5284;50.446;7.904;2023-07-20T06:07:20;98322.81;;;16.66;100.00
10474;BME280;5284;50.446;7.904;2023-07-20T06:12:23;98315.97;;;16.93;100.00
10474;BME280;5284;50.446;7.904;2023-07-20T06:17:26;98319.63;;;17.08;100.00
10474;BME280;5284;50.446;7.904;2023-07-20T06:22:30;98326.94;;;17.22;100.00
10474;BME280;5284;50.446;7.904;2023-07-20T06:27:33;98329.59;;;17.00;100.00
10474;BME280;5284;50.446;7.904;2023-07-20T06:32:36;98335.81;;;17.39;100.00
10474;BME280;5284;50.446;7.904;2023-07-20T06:37:41;98337.56;;;17.54;100.00
10474;BME280;5284;50.446;7.904;2023-07-20T06:42:44;98338.81;;;17.44;100.00
10474;BME280;5284;50.446;7.904;2023-07-20T06:47:50;98332.88;;;17.48;100.00
10474;BME280;5284;50.446;7.904;2023-07-20T06:52:54;98331.81;;;17.57;100.00
10474;BME280;5284;50.446;7.904;2023-07-20T06:57:59;98341.13;;;17.77;100.00
10474;BME280;5284;50.446;7.904;2023-07-20T07:03:02;98352.41;;;17.95;100.00
10474;BME280;5284;50.446;7.904;2023-07-20T07:08:07;98349.00;;;18.01;100.00
10474;BME280;5284;50.446;7.904;2023-07-20T07:13:10;98340.19;;;18.07;100.00
10474;BME280;5284;50.446;7.904;2023-07-20T07:18:13;98342.56;;;18.76;100.00
10474;BME280;5284;50.446;7.904;2023-07-20T07:23:17;98347.56;;;18.50;100.00
10474;BME280;5284;50.446;7.904;2023-07-20T07:28:20;98347.78;;;18.26;100.00
10474;BME280;5284;50.446;7.904;2023-07-20T07:33:23;98346.56;;;18.80;100.00
10474;BME280;5284;50.446;7.904;2023-07-20T07:38:27;98351.31;;;18.78;98.84
10474;BME280;5284;50.446;7.904;2023-07-20T07:43:51;98359.69;;;19.12;96.78
10474;BME280;5284;50.446;7.904;2023-07-20T07:48:53;98364.72;;;19.65;95.19
10474;BME280;5284;50.446;7.904;2023-07-20T07:53:59;98364.47;;;19.60;93.27
10474;BME280;5284;50.446;7.904;2023-07-20T07:59:02;98363.31;;;19.69;90.48
10474;BME280;5284;50.446;7.904;2023-07-20T08:04:04;98368.66;;;19.27;93.07
10474;BME280;5284;50.446;7.904;2023-07-20T08:09:09;98369.97;;;19.16;93.46
10474;BME280;5284;50.446;7.904;2023-07-20T08:14:11;98366.81;;;19.48;90.30
10474;BME280;5284;50.446;7.904;2023-07-20T08:19:14;98365.00;;;19.91;86.25
10474;BME280;5284;50.446;7.904;2023-07-20T08:24:19;98372.19;;;20.19;82.20
10474;BME280;5284;50.446;7.904;2023-07-20T08:29:22;98369.22;;;20.35;79.24
10474;BME280;5284;50.446;7.904;2023-07-20T08:34:25;98373.06;;;20.74;79.22
10474;BME280;5284;50.446;7.904;2023-07-20T08:39:34;98369.47;;;20.67;77.45
10474;BME280;5284;50.446;7.904;2023-07-20T08:44:37;98373.25;;;21.00;73.99
10474;BME280;5284;50.446;7.904;2023-07-20T08:49:41;98369.94;;;20.43;75.80
10474;BME280;5284;50.446;7.904;2023-07-20T08:54:45;98372.50;;;20.58;75.28
10474;BME280;5284;50.446;7.904;2023-07-20T08:59:49;98375.03;;;21.21;71.71
10474;BME280;5284;50.446;7.904;2023-07-20T09:04:54;98378.13;;;21.52;69.13
10474;BME280;5284;50.446;7.904;2023-07-20T09:09:58;98368.06;;;22.05;65.80
10474;BME280;5284;50.446;7.904;2023-07-20T09:15:08;98367.28;;;21.58;69.19
10474;BME280;5284;50.446;7.904;2023-07-20T09:20:11;98380.28;;;21.69;64.18
10474;BME280;5284;50.446;7.904;2023-07-20T09:25:17;98375.78;;;21.02;69.10
10474;BME280;5284;50.446;7.904;2023-07-20T09:30:25;98382.41;;;20.93;65.29
10474;BME280;5284;50.446;7.904;2023-07-20T09:35:31;98371.19;;;21.96;61.34
10474;BME280;5284;50.446;7.904;2023-07-20T09:40:45;98374.34;;;21.99;61.43
10474;BME280;5284;50.446;7.904;2023-07-20T09:45:57;98374.69;;;21.71;58.87
10474;BME280;5284;50.446;7.904;2023-07-20T09:56:06;98356.06;;;23.36;55.88
10474;BME280;5284;50.446;7.904;2023-07-20T10:01:10;98359.94;;;22.90;57.37
10474;BME280;5284;50.446;7.904;2023-07-20T10:06:20;98362.03;;;22.81;58.16
10474;BME280;5284;50.446;7.904;2023-07-20T10:11:28;98360.16;;;23.58;56.48
10474;BME280;5284;50.446;7.904;2023-07-20T10:16:35;98356.16;;;22.97;56.55
10474;BME280;5284;50.446;7.904;2023-07-20T10:21:41;98354.53;;;22.64;56.56
10474;BME280;5284;50.446;7.904;2023-07-20T10:26:47;98343.22;;;22.80;55.06
10474;BME280;5284;50.446;7.904;2023-07-20T10:31:50;98334.47;;;23.85;54.53
10474;BME280;5284;50.446;7.904;2023-07-20T10:36:56;98323.81;;;23.83;52.21
10474;BME280;5284;50.446;7.904;2023-07-20T10:42:06;98327.28;;;23.59;52.78
10474;BME280;5284;50.446;7.904;2023-07-20T10:47:10;98335.69;;;23.95;51.26
10474;BME280;5284;50.446;7.904;2023-07-20T10:52:15;98322.69;;;24.22;51.25
10474;BME280;5284;50.446;7.904;2023-07-20T10:57:24;98324.53;;;23.97;51.10
10474;BME280;5284;50.446;7.904;2023-07-20T11:02:28;98327.31;;;24.52;50.79
10474;BME280;5284;50.446;7.904;2023-07-20T11:07:37;98322.53;;;23.86;50.89
10474;BME280;5284;50.446;7.904;2023-07-20T11:13:22;98324.19;;;24.18;51.73
10474;BME280;5284;50.446;7.904;2023-07-20T11:18:26;98322.00;;;23.64;51.36
10474;BME280;5284;50.446;7.904;2023-07-20T11:23:31;98312.25;;;23.88;49.53
10474;BME280;5284;50.446;7.904;2023-07-20T11:28:36;98310.34;;;24.19;47.62
10474;BME280;5284;50.446;7.904;2023-07-20T11:33:39;98317.56;;;24.32;48.05
10474;BME280;5284;50.446;7.904;2023-07-20T11:38:42;98306.53;;;25.29;48.13
10474;BME280;5284;50.446;7.904;2023-07-20T11:43:47;98303.25;;;24.67;47.18
10474;BME280;5284;50.446;7.904;2023-07-20T11:48:56;98287.47;;;25.59;46.00
10474;BME280;5284;50.446;7.904;2023-07-20T11:54:00;98298.59;;;26.91;45.27
10474;BME280;5284;50.446;7.904;2023-07-20T11:59:06;98284.34;;;26.14;45.30
10474;BME280;5284;50.446;7.904;2023-07-20T12:04:09;98281.13;;;27.83;43.20
10474;BME280;5284;50.446;7.904;2023-07-20T12:09:13;98286.22;;;27.12;41.65
10474;BME280;5284;50.446;7.904;2023-07-20T12:14:19;98281.34;;;26.57;42.09
10474;BME280;5284;50.446;7.904;2023-07-20T12:19:25;98287.41;;;25.47;43.36
10474;BME280;5284;50.446;7.904;2023-07-20T12:24:28;98275.81;;;25.52;43.61
10474;BME280;5284;50.446;7.904;2023-07-20T12:29:32;98276.28;;;25.31;45.02
10474;BME280;5284;50.446;7.904;2023-07-20T12:34:38;98268.09;;;24.95;44.10
10474;BME280;5284;50.446;7.904;2023-07-20T12:39:41;98269.31;;;25.35;43.50
10474;BME280;5284;50.446;7.904;2023-07-20T12:44:50;98260.50;;;27.69;41.69
10474;BME280;5284;50.446;7.904;2023-07-20T12:49:53;98257.84;;;27.85;40.17
10474;BME280;5284;50.446;7.904;2023-07-20T12:54:56;98258.78;;;27.91;40.75
10474;BME280;5284;50.446;7.904;2023-07-20T13:00:01;98260.38;;;26.96;40.98
10474;BME280;5284;50.446;7.904;2023-07-20T13:05:05;98255.53;;;25.89;42.35
10474;BME280;5284;50.446;7.904;2023-07-20T13:10:09;98254.16;;;25.21;43.82
10474;BME280;5284;50.446;7.904;2023-07-20T13:15:13;98261.56;;;24.78;43.25
10474;BME280;5284;50.446;7.904;2023-07-20T13:20:16;98266.44;;;24.27;44.06
10474;BME280;5284;50.446;7.904;2023-07-20T13:25:20;98267.53;;;23.64;45.54
10474;BME280;5284;50.446;7.904;2023-07-20T13:30:24;98259.88;;;23.79;46.32
10474;BME280;5284;50.446;7.904;2023-07-20T13:35:28;98257.75;;;23.88;46.47
10474;BME280;5284;50.446;7.904;2023-07-20T13:40:49;98243.06;;;23.89;46.59
10474;BME280;5284;50.446;7.904;2023-07-20T13:45:54;98251.19;;;24.20;46.26
10474;BME280;5284;50.446;7.904;2023-07-20T13:50:57;98249.13;;;24.64;45.38
10474;BME280;5284;50.446;7.904;2023-07-20T13:56:02;98244.91;;;25.51;44.59
10474;BME280;5284;50.446;7.904;2023-07-20T14:01:09;98240.19;;;25.88;43.81
10474;BME280;5284;50.446;7.904;2023-07-20T14:06:12;98236.59;;;26.74;41.78
10474;BME280;5284;50.446;7.904;2023-07-20T14:11:20;98238.97;;;29.47;38.87
10474;BME280;5284;50.446;7.904;2023-07-20T14:16:27;98238.53;;;33.08;34.19
10474;BME280;5284;50.446;7.904;2023-07-20T14:21:32;98237.25;;;32.25;36.21
10474;BME280;5284;50.446;7.904;2023-07-20T14:26:35;98226.84;;;31.61;37.40
10474;BME280;5284;50.446;7.904;2023-07-20T14:31:39;98237.84;;;31.46;36.71
10474;BME280;5284;50.446;7.904;2023-07-20T14:36:42;98239.50;;;33.51;34.21
10474;BME280;5284;50.446;7.904;2023-07-20T14:41:45;98237.44;;;34.87;33.97
10474;BME280;5284;50.446;7.904;2023-07-20T14:46:50;98226.19;;;32.50;35.20
10474;BME280;5284;50.446;7.904;2023-07-20T14:52:12;98229.19;;;36.50;31.24
10474;BME280;5284;50.446;7.904;2023-07-20T14:57:17;98223.63;;;31.79;36.11
10474;BME280;5284;50.446;7.904;2023-07-20T15:02:21;98217.03;;;32.10;36.33
10474;BME280;5284;50.446;7.904;2023-07-20T15:07:24;98229.25;;;36.63;31.29
10474;BME280;5284;50.446;7.904;2023-07-20T15:12:27;98211.19;;;35.73;32.54
10474;BME280;5284;50.446;7.904;2023-07-20T15:17:32;98204.34;;;35.84;31.63
10474;BME280;5284;50.446;7.904;2023-07-20T15:22:35;98205.00;;;33.34;34.28
10474;BME280;5284;50.446;7.904;2023-07-20T15:27:39;98194.50;;;31.32;36.31
10474;BME280;5284;50.446;7.904;2023-07-20T15:32:52;98192.38;;;30.14;37.03
10474;BME280;5284;50.446;7.904;2023-07-20T15:38:00;98188.34;;;29.00;38.12
10474;BME280;5284;50.446;7.904;2023-07-20T15:43:03;98185.09;;;27.66;40.42
10474;BME280;5284;50.446;7.904;2023-07-20T15:48:23;98176.53;;;27.63;40.23
10474;BME280;5284;50.446;7.904;2023-07-20T15:53:26;98171.41;;;26.99;41.48
10474;BME280;5284;50.446;7.904;2023-07-20T15:58:33;98175.31;;;26.06;43.15
10474;BME280;5284;50.446;7.904;2023-07-20T16:03:37;98171.81;;;25.35;44.81
10474;BME280;5284;50.446;7.904;2023-07-20T16:08:40;98167.03;;;25.01;45.13
10474;BME280;5284;50.446;7.904;2023-07-20T16:13:43;98161.31;;;25.03;44.75
10474;BME280;5284;50.446;7.904;2023-07-20T16:18:50;98152.34;;;26.64;42.43
10474;BME280;5284;50.446;7.904;2023-07-20T16:23:55;98147.72;;;26.42;42.92
10474;BME280;5284;50.446;7.904;2023-07-20T16:28:58;98144.63;;;26.27;42.91
10474;BME280;5284;50.446;7.904;2023-07-20T16:34:07;98148.91;;;29.59;40.03
10474;BME280;5284;50.446;7.904;2023-07-20T16:39:10;98156.03;;;34.78;33.31
10474;BME280;5284;50.446;7.904;2023-07-20T16:44:15;98150.47;;;33.34;34.93
10474;BME280;5284;50.446;7.904;2023-07-20T16:49:20;98153.75;;;37.77;29.73
10474;BME280;5284;50.446;7.904;2023-07-20T16:54:22;98142.31;;;31.15;35.91
10474;BME280;5284;50.446;7.904;2023-07-20T16:59:25;98138.09;;;33.75;33.43
10474;BME280;5284;50.446;7.904;2023-07-20T17:04:30;98133.81;;;29.61;37.45
10474;BME280;5284;50.446;7.904;2023-07-20T17:09:34;98131.06;;;29.61;38.22
10474;BME280;5284;50.446;7.904;2023-07-20T17:14:37;98138.13;;;31.08;37.79
10474;BME280;5284;50.446;7.904;2023-07-20T17:19:41;98139.59;;;28.69;39.65
10474;BME280;5284;50.446;7.904;2023-07-20T17:24:44;98134.66;;;27.51;40.88
10474;BME280;5284;50.446;7.904;2023-07-20T17:29:50;98130.25;;;26.55;42.01
10474;BME280;5284;50.446;7.904;2023-07-20T17:34:54;98127.28;;;25.87;43.39
10474;BME280;5284;50.446;7.904;2023-07-20T17:40:06;98121.44;;;25.72;43.94
10474;BME280;5284;50.446;7.904;2023-07-20T17:45:13;98120.56;;;25.60;43.87
10474;BME280;5284;50.446;7.904;2023-07-20T17:50:18;98122.28;;;25.32;44.00
10474;BME280;5284;50.446;7.904;2023-07-20T17:55:21;98120.38;;;25.21;44.92
10474;BME280;5284;50.446;7.904;2023-07-20T18:00:23;98124.22;;;24.84;44.92
10474;BME280;5284;50.446;7.904;2023-07-20T18:05:31;98113.47;;;24.71;45.14
10474;BME280;5284;50.446;7.904;2023-07-20T18:10:34;98112.78;;;24.40;45.84
10474;BME280;5284;50.446;7.904;2023-07-20T18:15:37;98111.94;;;24.03;46.73
10474;BME280;5284;50.446;7.904;2023-07-20T18:20:41;98116.78;;;23.77;47.36
10474;BME280;5284;50.446;7.904;2023-07-20T18:25:44;98108.72;;;23.39;48.57
10474;BME280;5284;50.446;7.904;2023-07-20T18:30:47;98107.88;;;23.08;48.49
10474;BME280;5284;50.446;7.904;2023-07-20T18:35:53;98103.22;;;22.78;49.48
10474;BME280;5284;50.446;7.904;2023-07-20T18:40:56;98101.72;;;22.44;50.53
10474;BME280;5284;50.446;7.904;2023-07-20T18:45:59;98093.19;;;22.28;50.44
10474;BME280;5284;50.446;7.904;2023-07-20T18:51:03;98099.13;;;22.12;50.57
10474;BME280;5284;50.446;7.904;2023-07-20T18:56:09;98106.22;;;21.93;50.92
10474;BME280;5284;50.446;7.904;2023-07-20T19:01:12;98108.38;;;21.66;52.73
10474;BME280;5284;50.446;7.904;2023-07-20T19:06:16;98110.84;;;21.28;59.78
10474;BME280;5284;50.446;7.904;2023-07-20T19:11:19;98108.16;;;21.15;62.17
10474;BME280;5284;50.446;7.904;2023-07-20T19:16:25;98104.78;;;20.94;64.10
10474;BME280;5284;50.446;7.904;2023-07-20T19:21:30;98100.72;;;20.77;64.26
10474;BME280;5284;50.446;7.904;2023-07-20T19:26:33;98115.31;;;20.63;65.99
10474;BME280;5284;50.446;7.904;2023-07-20T19:31:36;98108.13;;;20.42;67.88
10474;BME280;5284;50.446;7.904;2023-07-20T19:36:41;98108.47;;;20.26;69.50
10474;BME280;5284;50.446;7.904;2023-07-20T19:41:44;98108.81;;;20.11;72.65
10474;BME280;5284;50.446;7.904;2023-07-20T19:46:47;98111.56;;;19.90;72.48
10474;BME280;5284;50.446;7.904;2023-07-20T19:51:51;98113.13;;;19.71;74.82
10474;BME280;5284;50.446;7.904;2023-07-20T19:56:54;98115.03;;;19.50;79.49
10474;BME280;5284;50.446;7.904;2023-07-20T20:01:57;98116.09;;;19.28;81.38
10474;BME280;5284;50.446;7.904;2023-07-20T20:07:02;98120.63;;;19.21;78.72
10474;BME280;5284;50.446;7.904;2023-07-20T20:12:09;98123.94;;;19.02;79.20
10474;BME280;5284;50.446;7.904;2023-07-20T20:17:14;98112.53;;;18.85;81.08
10474;BME280;5284;50.446;7.904;2023-07-20T20:22:22;98112.78;;;18.69;81.42
10474;BME280;5284;50.446;7.904;2023-07-20T20:27:25;98112.84;;;18.55;83.61
10474;BME280;5284;50.446;7.904;2023-07-20T20:32:27;98108.59;;;18.46;84.62
10474;BME280;5284;50.446;7.904;2023-07-20T20:37:32;98107.38;;;18.34;84.50
10474;BME280;5284;50.446;7.904;2023-07-20T20:42:35;98111.19;;;18.25;84.38
10474;BME280;5284;50.446;7.904;2023-07-20T20:47:37;98112.81;;;18.05;83.65
10474;BME280;5284;50.446;7.904;2023-07-20T20:52:42;98103.38;;;18.01;84.21
10474;BME280;5284;50.446;7.904;2023-07-20T20:57:45;98106.19;;;17.93;86.92
10474;BME280;5284;50.446;7.904;2023-07-20T21:02:50;98100.72;;;17.87;88.01
10474;BME280;5284;50.446;7.904;2023-07-20T21:07:54;98095.34;;;17.72;87.65
10474;BME280;5284;50.446;7.904;2023-07-20T21:12:59;98097.81;;;17.59;88.09
10474;BME280;5284;50.446;7.904;2023-07-20T21:18:02;98093.63;;;17.42;87.41
10474;BME280;5284;50.446;7.904;2023-07-20T21:23:07;98093.56;;;17.28;90.55
10474;BME280;5284;50.446;7.904;2023-07-20T21:28:09;98088.06;;;17.21;91.70
10474;BME280;5284;50.446;7.904;2023-07-20T21:33:12;98094.19;;;17.15;88.45
10474;BME280;5284;50.446;7.904;2023-07-20T21:38:17;98095.97;;;17.00;94.90
10474;BME280;5284;50.446;7.904;2023-07-20T21:43:20;98094.59;;;16.90;98.00
10474;BME280;5284;50.446;7.904;2023-07-20T21:48:23;98094.31;;;16.77;99.98
10474;BME280;5284;50.446;7.904;2023-07-20T21:53:27;98090.97;;;16.75;100.00
10474;BME280;5284;50.446;7.904;2023-07-20T21:58:30;98083.63;;;16.69;99.80
10474;BME280;5284;50.446;7.904;2023-07-20T22:03:33;98074.41;;;16.64;97.81
10474;BME280;5284;50.446;7.904;2023-07-20T22:08:38;98082.38;;;16.57;99.48
10474;BME280;5284;50.446;7.904;2023-07-20T22:13:42;98076.03;;;16.50;98.70
10474;BME280;5284;50.446;7.904;2023-07-20T22:18:45;98082.31;;;16.43;97.53
10474;BME280;5284;50.446;7.904;2023-07-20T22:23:51;98078.66;;;16.36;98.08
10474;BME280;5284;50.446;7.904;2023-07-20T22:28:54;98082.69;;;16.24;99.56
10474;BME280;5284;50.446;7.904;2023-07-20T22:33:57;98079.41;;;16.14;100.00
10474;BME280;5284;50.446;7.904;2023-07-20T22:39:01;98078.78;;;16.04;100.00
10474;BME280;5284;50.446;7.904;2023-07-20T22:44:05;98085.56;;;15.92;99.69
10474;BME280;5284;50.446;7.904;2023-07-20T22:49:08;98082.41;;;15.80;100.00
10474;BME280;5284;50.446;7.904;2023-07-20T22:54:12;98077.41;;;15.69;100.00
10474;BME280;5284;50.446;7.904;2023-07-20T22:59:16;98073.75;;;15.62;100.00
10474;BME280;5284;50.446;7.904;2023-07-20T23:04:19;98074.25;;;15.58;100.00
10474;BME280;5284;50.446;7.904;2023-07-20T23:09:23;98068.75;;;15.51;100.00
10474;BME280;5284;50.446;7.904;2023-07-20T23:14:26;98074.78;;;15.53;100.00
10474;BME280;5284;50.446;7.904;2023-07-20T23:19:29;98066.19;;;15.58;100.00
10474;BME280;5284;50.446;7.904;2023-07-20T23:24:34;98072.44;;;15.50;100.00
10474;BME280;5284;50.446;7.904;2023-07-20T23:29:37;98059.47;;;15.54;100.00
10474;BME280;5284;50.446;7.904;2023-07-20T23:34:40;98060.03;;;15.49;100.00
10474;BME280;5284;50.446;7.904;2023-07-20T23:39:44;98059.84;;;15.51;100.00
10474;BME280;5284;50.446;7.904;2023-07-20T23:44:48;98064.84;;;15.54;100.00
10474;BME280;5284;50.446;7.904;2023-07-20T23:49:54;98067.38;;;15.47;100.00
10474;BME280;5284;50.446;7.904;2023-07-20T23:54:58;98074.31;;;15.42;100.00
